Estación Meteorológica Peña el Pijo (Robertgarden) [ 01/30/23 14:00:51 CET ]

Fecha Hora Presion(HPa) Temp (°C) Humedad % Rocio (°C) Viento ( m/s) Direccion Lluvia 1Hora(mm) Lluvia 24H(mm) LLuvia Total(mm)
2010-Oct-01 01:01:16 1012.200 9.2 68 3.6         160.58
2010-Oct-01 02:01:13 1011.900 9.2 67 3.4         160.58
2010-Oct-01 03:03:21 1011.700 9.0 68 3.4         160.58
2010-Oct-01 04:01:12 1011.200 7.4 74 3.1         160.58
2010-Oct-01 05:01:21 1010.900 7.2 77 3.4         160.58
2010-Oct-01 06:01:16 1010.500 6.5 80 3.3         160.58
2010-Oct-01 07:01:16 1010.300 5.5 81 2.5         160.58
2010-Oct-01 08:01:13 1010.600 5.0 84 2.5         160.58
2010-Oct-01 09:01:13 1010.800 5.1 85 2.8         160.58
2010-Oct-01 10:01:14 1011.000 14.9 68 9.0         160.58
2010-Oct-01 11:01:12 1010.600 20.5 46 8.4         160.58
2010-Oct-01 12:01:12 1010.400 25.5 27 5.0         160.58
2010-Oct-01 13:01:14 1010.100 28.8 21 4.2         160.58
2010-Oct-01 14:01:13 1009.600 30.8 20 5.3         160.58
2010-Oct-01 15:01:12 1009.100 30.2 18 2.9         160.58
2010-Oct-01 16:01:13 1008.400 31.0 16 1.7         160.58
2010-Oct-01 17:01:15 1008.100 30.4 15 0.2         160.58
2010-Oct-01 18:01:15 1008.200 26.5 14 -3.6 1.5 WSW     160.58
2010-Oct-01 19:01:12 1008.400 23.4 18 -2.6         160.58
2010-Oct-01 20:01:10 1009.400 18.5 31 1.1         160.58
2010-Oct-01 21:01:13 1010.100 13.9 43 1.5         160.58
2010-Oct-01 22:01:14 1010.700 11.9 50 1.8         160.58
2010-Oct-01 23:01:13 1011.100 10.6 56 2.1         160.58

Temperatura Máxima:31°    Temperatura Mínima:
Presión Máxima:1012.200 Hpa    Presión Mínima:1008.100 Hpa


Volver